createdAt,value
2022-08-22T00:00:34.657Z,24.62
2022-08-22T00:01:40.468Z,24.68
2022-08-22T00:02:42.672Z,24.94
2022-08-22T00:02:42.775Z,24.90
2022-08-22T00:02:45.055Z,24.95
2022-08-22T00:02:56.359Z,24.74
2022-08-22T00:02:59.616Z,25.07
2022-08-22T00:03:15.030Z,24.54
2022-08-22T00:03:15.293Z,24.67
2022-08-22T00:04:15.832Z,24.67
2022-08-22T00:05:24.794Z,24.64
2022-08-22T00:06:31.655Z,24.65
2022-08-22T00:07:40.934Z,24.64
2022-08-22T00:08:50.703Z,24.58
2022-08-22T00:09:57.428Z,24.58
2022-08-22T00:11:03.345Z,24.55
2022-08-22T00:12:14.193Z,24.48
2022-08-22T00:13:19.877Z,24.42
2022-08-22T00:14:25.363Z,24.31
2022-08-22T00:15:42.170Z,24.30
2022-08-22T00:16:50.885Z,24.26
2022-08-22T00:17:59.042Z,24.26
2022-08-22T00:19:07.089Z,24.28
2022-08-22T00:20:13.412Z,24.32
2022-08-22T00:21:19.437Z,24.30
2022-08-22T00:22:26.111Z,24.31
2022-08-22T00:23:31.540Z,24.31
2022-08-22T00:24:38.892Z,24.29
2022-08-22T00:25:48.869Z,24.28
2022-08-22T00:26:54.272Z,24.23
2022-08-22T00:27:59.747Z,24.09
2022-08-22T00:29:03.541Z,24.01
2022-08-22T00:30:08.869Z,23.94
2022-08-22T00:31:16.072Z,23.99
2022-08-22T00:32:21.368Z,23.98
2022-08-22T00:33:28.038Z,24.00
2022-08-22T00:34:35.305Z,23.95
2022-08-22T00:35:45.020Z,23.91
2022-08-22T00:36:52.235Z,24.00
2022-08-22T00:38:00.274Z,24.00
2022-08-22T00:39:07.602Z,23.97
2022-08-22T00:40:17.582Z,23.96
2022-08-22T00:41:35.179Z,24.01
2022-08-22T00:42:46.712Z,24.07
2022-08-22T00:43:59.458Z,24.09
2022-08-22T00:45:12.021Z,24.07
2022-08-22T00:46:24.846Z,24.05
2022-08-22T00:47:37.259Z,23.97
2022-08-22T00:48:50.551Z,23.94
2022-08-22T00:50:03.372Z,23.96
2022-08-22T00:51:23.732Z,23.91
2022-08-22T00:52:54.149Z,23.87
2022-08-22T00:54:06.789Z,23.87
2022-08-22T00:55:35.044Z,23.90
2022-08-22T00:56:47.623Z,23.85
2022-08-22T00:57:56.146Z,23.82
2022-08-22T00:59:23.798Z,23.89
2022-08-22T01:00:29.065Z,23.88
2022-08-22T01:01:32.171Z,23.87
2022-08-22T01:02:42.923Z,23.87
2022-08-22T01:03:50.610Z,23.94
2022-08-22T01:05:01.739Z,24.03
2022-08-22T01:06:11.834Z,24.07
2022-08-22T01:07:23.254Z,24.05
2022-08-22T01:08:35.452Z,24.03
2022-08-22T01:09:45.569Z,24.05
2022-08-22T01:10:56.389Z,24.00
2022-08-22T01:12:11.952Z,23.89
2022-08-22T01:13:24.305Z,23.89
2022-08-22T01:14:42.748Z,23.83
2022-08-22T01:15:44.914Z,23.82
2022-08-22T01:17:01.678Z,23.77
2022-08-22T01:18:14.617Z,23.81
2022-08-22T01:19:41.566Z,23.86
2022-08-22T01:21:10.367Z,23.95
2022-08-22T01:22:27.941Z,23.94
2022-08-22T01:23:56.513Z,23.80
2022-08-22T01:25:22.485Z,23.73
2022-08-22T01:26:44.686Z,23.71
2022-08-22T01:28:08.255Z,23.62
2022-08-22T01:29:31.587Z,23.59
2022-08-22T01:30:55.404Z,23.56
2022-08-22T01:32:25.685Z,23.62
2022-08-22T01:33:43.415Z,23.62
2022-08-22T01:35:04.811Z,23.65
2022-08-22T01:36:24.185Z,23.74
2022-08-22T01:37:43.978Z,23.71
2022-08-22T01:39:04.858Z,23.68
2022-08-22T01:40:24.862Z,23.61
2022-08-22T01:41:49.689Z,23.53
2022-08-22T01:43:06.869Z,23.53
2022-08-22T01:44:16.483Z,23.46
2022-08-22T01:45:36.704Z,23.45
2022-08-22T01:46:44.987Z,23.43
2022-08-22T01:47:50.666Z,23.43
2022-08-22T01:49:04.156Z,23.45
2022-08-22T01:50:13.321Z,23.46
2022-08-22T01:51:21.948Z,23.49
2022-08-22T01:52:30.104Z,23.49
2022-08-22T01:53:43.584Z,23.49
2022-08-22T01:54:48.679Z,23.47
2022-08-22T01:55:57.942Z,23.52
2022-08-22T01:57:02.368Z,23.52
2022-08-22T01:58:15.225Z,23.53
2022-08-22T01:59:25.377Z,23.49
2022-08-22T02:00:52.730Z,23.45
2022-08-22T02:01:58.972Z,23.44
2022-08-22T02:03:09.888Z,23.43
2022-08-22T02:04:14.849Z,23.37
2022-08-22T02:05:27.820Z,23.41
2022-08-22T02:06:37.717Z,23.49
2022-08-22T02:07:45.429Z,23.53
2022-08-22T02:08:50.606Z,23.55
2022-08-22T02:10:01.316Z,23.57
2022-08-22T02:11:04.849Z,23.54
2022-08-22T02:12:21.566Z,23.59
2022-08-22T02:13:33.781Z,23.60
2022-08-22T02:14:42.015Z,23.67
2022-08-22T02:15:47.310Z,23.67
2022-08-22T02:16:52.680Z,23.65
2022-08-22T02:18:01.231Z,23.69
2022-08-22T02:19:20.518Z,23.63
2022-08-22T02:20:26.240Z,23.53
2022-08-22T02:21:33.873Z,23.50
2022-08-22T02:22:44.620Z,23.45
2022-08-22T02:23:50.646Z,23.45
2022-08-22T02:25:00.021Z,23.44
2022-08-22T02:26:06.212Z,23.36
2022-08-22T02:27:11.819Z,23.34
2022-08-22T02:28:17.521Z,23.30
2022-08-22T02:29:23.473Z,23.36
2022-08-22T02:30:29.707Z,23.40
2022-08-22T02:31:38.253Z,23.48
2022-08-22T02:32:47.242Z,23.48
2022-08-22T02:33:54.443Z,23.47
2022-08-22T02:35:04.082Z,23.45
2022-08-22T02:36:14.623Z,23.35
2022-08-22T02:37:21.922Z,23.39
2022-08-22T02:38:28.296Z,23.44
2022-08-22T02:39:37.320Z,23.36
2022-08-22T02:40:41.483Z,23.42
2022-08-22T02:41:49.578Z,23.37
2022-08-22T02:42:55.440Z,23.38
2022-08-22T02:44:00.921Z,23.36
2022-08-22T02:45:06.233Z,23.32
2022-08-22T02:46:15.441Z,23.29
2022-08-22T02:47:25.885Z,23.30
2022-08-22T02:48:35.692Z,23.10
2022-08-22T02:49:44.124Z,23.19
2022-08-22T02:50:53.135Z,23.22
2022-08-22T02:51:58.829Z,23.26
2022-08-22T02:53:07.164Z,23.26
2022-08-22T02:54:14.365Z,23.27
2022-08-22T02:55:20.058Z,23.22
2022-08-22T02:56:25.704Z,23.24
2022-08-22T02:57:30.543Z,23.22
2022-08-22T02:58:44.060Z,23.14
2022-08-22T02:59:59.344Z,23.14
2022-08-22T03:01:20.758Z,23.10
2022-08-22T03:02:27.782Z,23.16
2022-08-22T03:03:32.530Z,23.16
2022-08-22T03:04:47.461Z,23.14
2022-08-22T03:05:52.358Z,23.17
2022-08-22T03:07:12.410Z,23.19
2022-08-22T03:08:22.809Z,23.12
2022-08-22T03:09:27.576Z,23.06
2022-08-22T03:10:31.766Z,23.07
2022-08-22T03:11:36.767Z,23.09
2022-08-22T03:12:42.981Z,23.11
2022-08-22T03:13:49.466Z,23.16
2022-08-22T03:14:58.563Z,23.21
2022-08-22T03:16:04.449Z,23.27
2022-08-22T03:17:10.912Z,23.28
2022-08-22T03:18:19.650Z,23.20
2022-08-22T03:19:26.263Z,23.17
2022-08-22T03:20:41.102Z,23.19
2022-08-22T03:21:45.914Z,23.29
2022-08-22T03:22:53.768Z,23.32
2022-08-22T03:24:01.768Z,23.34
2022-08-22T03:25:08.578Z,23.34
2022-08-22T03:26:14.616Z,23.34
2022-08-22T03:27:32.919Z,23.37
2022-08-22T03:28:39.766Z,23.34
2022-08-22T03:30:02.392Z,23.35
2022-08-22T03:31:12.573Z,23.39
2022-08-22T03:32:15.791Z,23.33
2022-08-22T03:33:20.494Z,23.30
2022-08-22T03:34:23.566Z,23.22
2022-08-22T03:35:30.809Z,23.40
2022-08-22T03:36:34.088Z,23.56
2022-08-22T03:37:39.191Z,23.58
2022-08-22T03:38:49.648Z,23.57
2022-08-22T03:39:56.834Z,23.37
2022-08-22T03:41:09.399Z,23.23
2022-08-22T03:42:22.371Z,23.15
2022-08-22T03:43:47.583Z,23.04
2022-08-22T03:45:08.053Z,22.85
2022-08-22T03:46:23.992Z,22.67
2022-08-22T03:47:54.015Z,22.82
2022-08-22T03:49:25.411Z,22.90
2022-08-22T03:50:42.935Z,23.05
2022-08-22T03:51:56.135Z,23.04
2022-08-22T03:53:19.209Z,23.12
2022-08-22T03:54:52.459Z,22.90
2022-08-22T03:56:23.376Z,22.75
2022-08-22T03:57:48.683Z,22.64
2022-08-22T03:59:10.070Z,22.61
2022-08-22T04:00:20.549Z,22.55
2022-08-22T04:01:33.926Z,22.47
2022-08-22T04:02:50.606Z,22.76
2022-08-22T04:04:12.422Z,22.91
2022-08-22T04:05:45.515Z,23.00
2022-08-22T04:07:03.759Z,23.12
2022-08-22T04:08:26.630Z,23.08
2022-08-22T04:09:37.003Z,23.09
2022-08-22T04:10:58.297Z,23.02
2022-08-22T04:12:17.962Z,22.97
2022-08-22T04:13:30.355Z,22.89
2022-08-22T04:14:58.115Z,22.82
2022-08-22T04:16:08.590Z,22.84
2022-08-22T04:17:29.199Z,22.85
2022-08-22T04:18:38.436Z,22.78
2022-08-22T04:19:54.600Z,22.53
2022-08-22T04:21:14.150Z,22.40
2022-08-22T04:22:27.095Z,22.47
2022-08-22T04:23:47.604Z,22.56
2022-08-22T04:24:54.138Z,22.67
2022-08-22T04:25:59.482Z,22.66
2022-08-22T04:27:11.822Z,22.66
2022-08-22T04:28:18.691Z,22.67
2022-08-22T04:29:26.167Z,22.66
2022-08-22T04:30:32.724Z,22.67
2022-08-22T04:31:36.798Z,22.65
2022-08-22T04:32:42.832Z,22.71
2022-08-22T04:33:47.801Z,22.71
2022-08-22T04:34:52.419Z,22.68
2022-08-22T04:35:59.919Z,22.70
2022-08-22T04:37:05.094Z,22.71
2022-08-22T04:38:10.376Z,22.67
2022-08-22T04:39:18.477Z,22.70
2022-08-22T04:40:24.434Z,22.70
2022-08-22T04:41:42.029Z,22.67
2022-08-22T04:42:46.233Z,22.65
2022-08-22T04:43:52.134Z,22.69
2022-08-22T04:44:57.804Z,22.71
2022-08-22T04:46:05.463Z,22.78
2022-08-22T04:47:13.326Z,22.80
2022-08-22T04:48:21.676Z,22.73
2022-08-22T04:49:29.388Z,22.68
2022-08-22T04:50:37.996Z,22.65
2022-08-22T04:51:45.545Z,22.64
2022-08-22T04:53:09.960Z,22.64
2022-08-22T04:54:24.261Z,22.65
2022-08-22T04:55:32.962Z,22.67
2022-08-22T04:56:39.571Z,22.69
2022-08-22T04:57:47.337Z,22.70
2022-08-22T04:58:55.416Z,22.70
2022-08-22T04:59:59.175Z,22.70
2022-08-22T05:01:05.732Z,22.73
2022-08-22T05:02:09.743Z,22.78
2022-08-22T05:03:14.615Z,22.69
2022-08-22T05:04:20.962Z,22.67
2022-08-22T05:05:24.792Z,22.69
2022-08-22T05:06:29.713Z,22.69
2022-08-22T05:07:36.215Z,22.71
2022-08-22T05:08:41.776Z,22.70
2022-08-22T05:09:48.570Z,22.60
2022-08-22T05:10:52.286Z,22.58
2022-08-22T05:11:57.578Z,22.60
2022-08-22T05:13:02.811Z,22.57
2022-08-22T05:14:10.103Z,22.57
2022-08-22T05:15:16.198Z,22.58
2022-08-22T05:16:29.341Z,22.63
2022-08-22T05:17:32.400Z,22.64
2022-08-22T05:18:37.835Z,22.68
2022-08-22T05:19:41.531Z,22.70
2022-08-22T05:20:46.770Z,22.66
2022-08-22T05:21:51.791Z,22.64
2022-08-22T05:22:57.729Z,22.65
2022-08-22T05:24:03.180Z,22.61
2022-08-22T05:25:08.719Z,22.63
2022-08-22T05:26:12.401Z,22.69
2022-08-22T05:27:16.979Z,22.70
2022-08-22T05:28:23.959Z,22.76
2022-08-22T05:29:29.872Z,22.85
2022-08-22T05:30:33.941Z,22.85
2022-08-22T05:31:38.920Z,22.91
2022-08-22T05:32:45.447Z,22.92
2022-08-22T05:33:49.486Z,22.92
2022-08-22T05:34:52.279Z,22.94
2022-08-22T05:35:58.058Z,22.95
2022-08-22T05:37:04.645Z,22.91
2022-08-22T05:38:12.617Z,22.92
2022-08-22T05:39:19.503Z,22.93
2022-08-22T05:40:24.540Z,22.98
2022-08-22T05:41:28.922Z,23.00
2022-08-22T05:42:34.007Z,23.04
2022-08-22T05:43:38.837Z,23.08
2022-08-22T05:44:42.671Z,23.09
2022-08-22T05:45:47.451Z,23.11
2022-08-22T05:46:51.799Z,23.07
2022-08-22T05:47:59.063Z,23.10
2022-08-22T05:49:02.598Z,23.09
2022-08-22T05:50:07.342Z,23.08
2022-08-22T05:51:15.481Z,23.02
2022-08-22T05:52:34.429Z,23.01
2022-08-22T05:53:38.840Z,23.02
2022-08-22T05:54:47.283Z,23.00
2022-08-22T05:55:55.439Z,22.99
2022-08-22T05:57:07.375Z,23.00
2022-08-22T05:58:18.313Z,23.02
2022-08-22T05:59:25.045Z,23.05
2022-08-22T06:00:32.593Z,23.04
2022-08-22T06:01:37.406Z,23.06
2022-08-22T06:02:48.392Z,23.12
2022-08-22T06:03:57.618Z,23.11
2022-08-22T06:05:01.951Z,23.11
2022-08-22T06:06:09.539Z,23.11
2022-08-22T06:07:17.317Z,23.09
2022-08-22T06:08:21.361Z,23.06
2022-08-22T06:09:35.354Z,23.04
2022-08-22T06:10:40.085Z,23.04
2022-08-22T06:11:52.019Z,23.04
2022-08-22T06:12:55.911Z,23.06
2022-08-22T06:14:07.933Z,23.07
2022-08-22T06:15:15.224Z,23.09
2022-08-22T06:16:24.813Z,23.08
2022-08-22T06:17:29.155Z,23.12
2022-08-22T06:18:32.681Z,23.15
2022-08-22T06:19:36.121Z,23.09
2022-08-22T06:20:40.795Z,23.08
2022-08-22T06:21:44.385Z,23.13
2022-08-22T06:22:51.570Z,23.16
2022-08-22T06:23:57.669Z,23.11
2022-08-22T06:25:03.155Z,23.11
2022-08-22T06:26:06.673Z,23.15
2022-08-22T06:27:25.560Z,23.11
2022-08-22T06:28:29.595Z,23.13
2022-08-22T06:29:36.253Z,23.10
2022-08-22T06:30:39.649Z,23.15
2022-08-22T06:31:45.864Z,23.15
2022-08-22T06:32:59.865Z,23.19
2022-08-22T06:34:05.833Z,23.16
2022-08-22T06:35:11.485Z,23.15
2022-08-22T06:36:34.186Z,23.20
2022-08-22T06:37:38.593Z,23.24
2022-08-22T06:38:54.382Z,23.30
2022-08-22T06:39:56.960Z,23.35
2022-08-22T06:41:00.894Z,23.40
2022-08-22T06:42:04.847Z,23.44
2022-08-22T06:43:07.691Z,23.49
2022-08-22T06:44:10.447Z,23.52
2022-08-22T06:45:17.407Z,23.50
2022-08-22T06:46:20.384Z,23.50
2022-08-22T06:47:25.931Z,23.48
2022-08-22T06:48:27.925Z,23.45
2022-08-22T06:49:31.813Z,23.46
2022-08-22T06:50:35.128Z,23.45
2022-08-22T06:51:39.193Z,23.41
2022-08-22T06:52:50.126Z,23.45
2022-08-22T06:53:54.815Z,23.45
2022-08-22T06:55:00.245Z,23.46
2022-08-22T06:56:06.009Z,23.48
2022-08-22T06:57:25.142Z,23.51
2022-08-22T06:58:33.991Z,23.54
2022-08-22T06:59:38.381Z,23.55
2022-08-22T07:00:41.801Z,23.61
2022-08-22T07:01:48.973Z,23.65
2022-08-22T07:02:56.345Z,23.70
2022-08-22T07:03:59.324Z,23.78
2022-08-22T07:05:02.279Z,23.84
2022-08-22T07:06:04.702Z,23.90
2022-08-22T07:07:07.487Z,23.96
2022-08-22T07:08:10.939Z,24.01
2022-08-22T07:09:19.870Z,24.05
2022-08-22T07:10:22.714Z,24.10
2022-08-22T07:11:28.093Z,24.13
2022-08-22T07:12:35.348Z,24.18
2022-08-22T07:13:38.912Z,24.21
2022-08-22T07:14:44.070Z,24.23
2022-08-22T07:15:53.717Z,24.26
2022-08-22T07:16:58.954Z,24.24
2022-08-22T07:18:05.569Z,24.19
2022-08-22T07:19:08.507Z,24.12
2022-08-22T07:20:18.341Z,24.05
2022-08-22T07:21:25.165Z,24.01
2022-08-22T07:22:32.537Z,23.96
2022-08-22T07:23:36.561Z,23.90
2022-08-22T07:24:42.413Z,23.90
2022-08-22T07:25:51.817Z,23.94
2022-08-22T07:27:04.805Z,23.91
2022-08-22T07:28:21.609Z,23.93
2022-08-22T07:29:48.334Z,24.04
2022-08-22T07:30:55.681Z,24.11
2022-08-22T07:32:03.476Z,24.17
2022-08-22T07:33:17.756Z,24.22
2022-08-22T07:34:37.665Z,24.27
2022-08-22T07:35:42.073Z,24.29
2022-08-22T07:37:00.158Z,24.33
2022-08-22T07:38:10.020Z,24.35
2022-08-22T07:39:25.504Z,24.42
2022-08-22T07:40:32.181Z,24.41
2022-08-22T07:41:38.295Z,24.42
2022-08-22T07:42:44.782Z,24.45
2022-08-22T07:43:51.607Z,24.48
2022-08-22T07:45:00.769Z,24.49
2022-08-22T07:46:08.089Z,24.50
2022-08-22T07:47:12.978Z,24.50
2022-08-22T07:48:25.754Z,24.51
2022-08-22T07:49:31.321Z,24.50
2022-08-22T07:50:36.535Z,24.46
2022-08-22T07:51:42.711Z,24.46
2022-08-22T07:52:46.845Z,24.48
2022-08-22T07:53:52.305Z,24.50
2022-08-22T07:54:57.941Z,24.52
2022-08-22T07:56:01.669Z,24.54
2022-08-22T07:57:07.068Z,24.55
2022-08-22T07:58:11.320Z,24.57
2022-08-22T07:59:17.071Z,24.59
2022-08-22T08:00:21.407Z,24.59
2022-08-22T08:01:25.507Z,24.60
2022-08-22T08:02:28.381Z,24.60
2022-08-22T08:03:32.809Z,24.60
2022-08-22T08:04:39.970Z,24.62
2022-08-22T08:05:44.302Z,24.58
2022-08-22T08:06:48.363Z,24.53
2022-08-22T08:07:51.909Z,24.51
2022-08-22T08:08:55.981Z,24.51
2022-08-22T08:10:00.786Z,24.53
2022-08-22T08:11:04.611Z,24.55
2022-08-22T08:12:09.158Z,24.56
2022-08-22T08:13:12.892Z,24.54
2022-08-22T08:14:16.833Z,24.54
2022-08-22T08:15:20.695Z,24.53
2022-08-22T08:16:25.608Z,24.53
2022-08-22T08:17:39.447Z,24.52
2022-08-22T08:18:45.117Z,24.53
2022-08-22T08:19:47.447Z,24.54
2022-08-22T08:20:54.467Z,24.54
2022-08-22T08:21:57.856Z,24.55
2022-08-22T08:22:59.669Z,24.56
2022-08-22T08:24:03.271Z,24.58
2022-08-22T08:25:06.357Z,24.63
2022-08-22T08:26:11.005Z,24.67
2022-08-22T08:27:31.658Z,24.70
2022-08-22T08:28:38.661Z,24.72
2022-08-22T08:29:43.267Z,24.73
2022-08-22T08:30:46.824Z,24.73
2022-08-22T08:31:49.668Z,24.73
2022-08-22T08:32:57.617Z,24.74
2022-08-22T08:34:21.411Z,24.75
2022-08-22T08:35:25.560Z,24.76
2022-08-22T08:36:34.463Z,24.77
2022-08-22T08:37:43.132Z,24.79
2022-08-22T08:38:47.953Z,24.80
2022-08-22T08:39:52.991Z,24.80
2022-08-22T08:41:01.642Z,24.81
2022-08-22T08:42:25.304Z,24.82
2022-08-22T08:43:36.654Z,24.83
2022-08-22T08:44:50.448Z,24.83
2022-08-22T08:46:01.474Z,24.84
2022-08-22T08:47:17.093Z,24.84
2022-08-22T08:48:37.216Z,24.83
2022-08-22T08:49:50.909Z,24.83
2022-08-22T08:51:02.140Z,24.84
2022-08-22T08:52:14.186Z,24.85
2022-08-22T08:55:21.877Z,24.83
2022-08-22T08:56:30.069Z,24.83
2022-08-22T08:57:38.633Z,24.86
2022-08-22T08:58:43.399Z,24.88
2022-08-22T08:59:50.679Z,24.88
2022-08-22T09:00:56.984Z,24.89
2022-08-22T09:02:23.639Z,24.89
2022-08-22T09:03:41.687Z,24.90
2022-08-22T09:05:19.535Z,24.90
2022-08-22T09:06:38.861Z,24.91
2022-08-22T09:07:51.733Z,24.90
2022-08-22T09:09:00.321Z,24.90
2022-08-22T09:10:11.381Z,24.91
2022-08-22T09:11:31.061Z,24.91
2022-08-22T09:12:56.265Z,24.91
2022-08-22T09:14:17.218Z,24.92
2022-08-22T09:15:26.353Z,24.90
2022-08-22T09:16:45.060Z,24.90
2022-08-22T09:18:07.736Z,24.89
2022-08-22T09:19:21.741Z,24.88
2022-08-22T09:20:33.085Z,24.84
2022-08-22T09:21:53.401Z,24.81
2022-08-22T09:23:10.958Z,24.82
2022-08-22T09:24:32.912Z,24.84
2022-08-22T09:25:38.651Z,24.89
2022-08-22T09:26:48.323Z,24.91
2022-08-22T09:27:57.048Z,24.89
2022-08-22T09:29:07.294Z,24.85
2022-08-22T09:30:12.016Z,24.85
2022-08-22T09:31:51.561Z,24.90
2022-08-22T09:32:58.953Z,24.92
2022-08-22T09:34:05.966Z,24.95
2022-08-22T09:35:13.887Z,24.96
2022-08-22T09:36:19.165Z,24.98
2022-08-22T09:37:30.521Z,24.99
2022-08-22T09:38:48.025Z,24.99
2022-08-22T09:40:00.139Z,25.00
2022-08-22T09:41:12.131Z,25.01
2022-08-22T09:42:18.289Z,25.02
2022-08-22T09:43:23.664Z,25.02
2022-08-22T09:44:31.071Z,25.02
2022-08-22T09:45:38.425Z,25.02
2022-08-22T09:46:51.028Z,25.05
2022-08-22T09:48:00.095Z,25.03
2022-08-22T09:49:13.208Z,25.03
2022-08-22T09:50:18.188Z,25.02
2022-08-22T09:51:32.670Z,25.03
2022-08-22T09:52:51.809Z,25.03
2022-08-22T09:54:02.353Z,25.04
2022-08-22T09:55:09.604Z,25.02
2022-08-22T09:56:21.208Z,25.04
2022-08-22T09:57:33.263Z,25.06
2022-08-22T09:58:41.709Z,25.06
2022-08-22T09:59:59.504Z,25.07
2022-08-22T10:01:07.065Z,25.06
2022-08-22T10:02:17.280Z,25.06
2022-08-22T10:03:24.964Z,25.07
2022-08-22T10:04:42.088Z,25.08
2022-08-22T10:05:46.783Z,25.06
2022-08-22T10:06:55.974Z,25.08
2022-08-22T10:08:12.896Z,25.09
2022-08-22T10:09:26.430Z,25.04
2022-08-22T10:10:46.739Z,25.07
2022-08-22T10:11:54.177Z,25.08
2022-08-22T10:13:00.632Z,25.08
2022-08-22T10:14:05.764Z,25.08
2022-08-22T10:15:16.180Z,25.10
2022-08-22T10:16:22.570Z,25.10
2022-08-22T10:17:30.616Z,25.11
2022-08-22T10:18:37.057Z,25.11
2022-08-22T10:19:49.443Z,25.11
2022-08-22T10:20:59.477Z,25.11
2022-08-22T10:22:17.288Z,25.11
2022-08-22T10:23:24.082Z,25.11
2022-08-22T10:24:36.024Z,25.11
2022-08-22T10:25:49.932Z,25.12
2022-08-22T10:26:54.499Z,25.13
2022-08-22T10:28:03.273Z,25.14
2022-08-22T10:29:09.057Z,25.15
2022-08-22T10:30:13.423Z,25.14
2022-08-22T10:31:22.443Z,25.13
2022-08-22T10:32:30.696Z,25.14
2022-08-22T10:33:35.513Z,25.13
2022-08-22T10:34:40.557Z,25.13
2022-08-22T10:35:49.205Z,25.14
2022-08-22T10:36:58.623Z,25.13
2022-08-22T10:38:10.778Z,25.15
2022-08-22T10:39:19.923Z,25.15
2022-08-22T10:40:28.137Z,25.16
2022-08-22T10:41:36.797Z,25.16
2022-08-22T10:42:42.280Z,25.16
2022-08-22T10:43:56.576Z,25.16
2022-08-22T10:45:23.979Z,25.16
2022-08-22T10:46:42.201Z,25.18
2022-08-22T10:48:04.806Z,25.19
2022-08-22T10:49:17.906Z,25.21
2022-08-22T10:50:22.747Z,25.22
2022-08-22T10:51:36.704Z,25.21
2022-08-22T10:52:44.367Z,25.21
2022-08-22T10:53:55.908Z,25.21
2022-08-22T10:55:05.712Z,25.21
2022-08-22T10:56:14.871Z,25.21
2022-08-22T10:57:36.434Z,25.23
2022-08-22T10:58:40.826Z,25.24
2022-08-22T10:59:50.589Z,25.24
2022-08-22T11:00:54.299Z,25.21
2022-08-22T11:02:04.419Z,25.23
2022-08-22T11:03:15.126Z,25.23
2022-08-22T11:04:30.993Z,25.24
2022-08-22T11:05:35.652Z,25.23
2022-08-22T11:06:41.769Z,25.23
2022-08-22T11:07:50.266Z,25.23
2022-08-22T11:09:10.822Z,25.24
2022-08-22T11:10:21.014Z,25.23
2022-08-22T11:11:36.247Z,25.24
2022-08-22T11:12:44.490Z,25.23
2022-08-22T11:13:57.063Z,25.24
2022-08-22T11:15:07.503Z,25.24
2022-08-22T11:16:26.397Z,25.24
2022-08-22T11:17:40.686Z,25.25
2022-08-22T11:19:01.811Z,25.23
2022-08-22T11:20:15.992Z,25.24
2022-08-22T11:21:27.664Z,25.25
2022-08-22T11:22:34.843Z,25.22
2022-08-22T11:23:39.534Z,25.22
2022-08-22T11:25:04.730Z,25.21
2022-08-22T11:26:14.498Z,25.21
2022-08-22T11:27:39.749Z,25.23
2022-08-22T11:29:14.090Z,25.23
2022-08-22T11:30:19.317Z,25.24
2022-08-22T11:31:31.833Z,25.24
2022-08-22T11:32:40.804Z,25.25
2022-08-22T11:33:51.018Z,25.26
2022-08-22T11:34:57.540Z,25.24
2022-08-22T11:36:09.421Z,25.24
2022-08-22T11:37:42.861Z,25.23
2022-08-22T11:38:50.550Z,25.26
2022-08-22T11:40:04.439Z,25.24
2022-08-22T11:41:12.986Z,25.23
2022-08-22T11:42:22.152Z,25.22
2022-08-22T11:43:44.314Z,25.24
2022-08-22T11:44:51.945Z,25.21
2022-08-22T11:45:57.025Z,25.22
2022-08-22T11:47:01.497Z,25.24
2022-08-22T11:48:09.698Z,25.24
2022-08-22T11:49:27.987Z,25.25
2022-08-22T11:50:37.376Z,25.25
2022-08-22T11:51:55.510Z,25.27
2022-08-22T11:53:08.084Z,25.27
2022-08-22T11:54:14.399Z,25.27
2022-08-22T11:55:21.541Z,25.27
2022-08-22T11:56:29.212Z,25.28
2022-08-22T11:57:34.660Z,25.28
2022-08-22T11:58:43.938Z,25.28
2022-08-22T12:00:00.242Z,25.28
2022-08-22T12:01:05.472Z,25.29
2022-08-22T12:02:17.548Z,25.27
2022-08-22T12:03:27.882Z,25.28
2022-08-22T12:04:33.265Z,25.28
2022-08-22T12:05:40.109Z,25.28
2022-08-22T12:06:54.537Z,25.27
2022-08-22T12:08:06.694Z,25.28
2022-08-22T12:09:12.272Z,25.29
2022-08-22T12:10:17.201Z,25.28
2022-08-22T12:11:23.816Z,25.28
2022-08-22T12:12:43.692Z,25.28
2022-08-22T12:13:49.764Z,25.25
2022-08-22T12:14:57.321Z,25.23
2022-08-22T12:16:03.894Z,25.22
2022-08-22T12:17:26.253Z,25.21
2022-08-22T12:18:56.062Z,25.21
2022-08-22T12:20:16.853Z,25.20
2022-08-22T12:21:38.368Z,25.18
2022-08-22T12:22:51.347Z,25.20
2022-08-22T12:24:00.574Z,25.21
2022-08-22T12:25:13.613Z,25.24
2022-08-22T12:26:21.943Z,25.25
2022-08-22T12:27:55.269Z,25.26
2022-08-22T12:29:15.651Z,25.24
2022-08-22T12:30:22.546Z,25.25
2022-08-22T12:31:31.234Z,25.25
2022-08-22T12:32:45.847Z,25.28
2022-08-22T12:34:00.506Z,25.29
2022-08-22T12:35:18.638Z,25.29
2022-08-22T12:36:27.272Z,25.28
2022-08-22T12:37:33.021Z,25.29
2022-08-22T12:39:09.317Z,25.28
2022-08-22T12:40:26.321Z,25.30
2022-08-22T12:41:46.707Z,25.29
2022-08-22T12:43:00.818Z,25.29
2022-08-22T12:44:17.007Z,25.29
2022-08-22T12:45:28.189Z,25.30
2022-08-22T12:46:47.333Z,25.31
2022-08-22T12:47:55.380Z,25.30
2022-08-22T12:49:09.174Z,25.30
2022-08-22T12:50:19.384Z,25.30
2022-08-22T12:51:29.454Z,25.31
2022-08-22T12:52:37.795Z,25.31
2022-08-22T12:53:51.062Z,25.29
2022-08-22T12:55:03.745Z,25.26
2022-08-22T12:56:13.499Z,25.27
2022-08-22T12:57:23.704Z,25.25
2022-08-22T12:58:33.975Z,25.25
2022-08-22T12:59:40.351Z,25.24
2022-08-22T13:00:47.392Z,25.24
2022-08-22T13:01:50.584Z,25.25
2022-08-22T13:02:54.182Z,25.26
2022-08-22T13:03:57.797Z,25.27
2022-08-22T13:05:01.789Z,25.27
2022-08-22T13:06:07.841Z,25.29
2022-08-22T13:07:23.154Z,25.29
2022-08-22T13:08:29.643Z,25.29
2022-08-22T13:09:34.313Z,25.30
2022-08-22T13:10:39.684Z,25.27
2022-08-22T13:11:45.955Z,25.29
2022-08-22T13:12:51.168Z,25.29
2022-08-22T13:13:56.568Z,25.29
2022-08-22T13:15:06.729Z,25.28
2022-08-22T13:16:15.608Z,25.29
2022-08-22T13:17:24.252Z,25.27
2022-08-22T13:18:32.310Z,25.24
2022-08-22T13:19:46.515Z,25.25
2022-08-22T13:20:51.457Z,25.22
2022-08-22T13:21:57.241Z,25.23
2022-08-22T13:23:00.821Z,25.21
2022-08-22T13:24:05.665Z,25.22
2022-08-22T13:25:25.410Z,25.19
2022-08-22T13:26:33.516Z,25.19
2022-08-22T13:27:51.318Z,25.19
2022-08-22T13:29:25.208Z,25.18
2022-08-22T13:30:32.968Z,25.16
2022-08-22T13:31:36.149Z,25.12
2022-08-22T13:32:40.521Z,25.08
2022-08-22T13:33:48.102Z,25.08
2022-08-22T13:34:54.041Z,25.09
2022-08-22T13:35:58.245Z,25.10
2022-08-22T13:37:04.854Z,25.08
2022-08-22T13:38:12.346Z,25.10
2022-08-22T13:39:25.859Z,25.09
2022-08-22T13:40:30.543Z,25.04
2022-08-22T13:41:38.251Z,24.99
2022-08-22T13:42:48.716Z,24.93
2022-08-22T13:44:12.503Z,24.97
2022-08-22T13:45:22.817Z,24.98
2022-08-22T13:46:28.057Z,24.97
2022-08-22T13:47:34.507Z,24.98
2022-08-22T13:48:49.546Z,25.00
2022-08-22T13:49:52.874Z,25.01
2022-08-22T13:51:05.639Z,25.04
2022-08-22T13:52:29.047Z,25.05
2022-08-22T13:53:37.093Z,25.05
2022-08-22T13:54:45.875Z,25.08
2022-08-22T13:55:50.527Z,25.07
2022-08-22T13:56:56.567Z,25.07
2022-08-22T13:58:01.799Z,25.06
2022-08-22T13:59:07.613Z,25.05
2022-08-22T14:00:29.486Z,25.07
2022-08-22T14:01:39.158Z,25.07
2022-08-22T14:02:49.365Z,25.07
2022-08-22T14:03:56.713Z,25.07
2022-08-22T14:05:03.999Z,25.09
2022-08-22T14:06:37.248Z,25.09
2022-08-22T14:07:38.818Z,25.08
2022-08-22T14:08:45.751Z,25.08
2022-08-22T14:09:55.901Z,25.07
2022-08-22T14:11:02.026Z,25.08
2022-08-22T14:12:12.673Z,25.08
2022-08-22T14:13:29.809Z,25.09
2022-08-22T14:14:35.522Z,25.10
2022-08-22T14:15:45.807Z,25.12
2022-08-22T14:16:52.205Z,25.13
2022-08-22T14:17:57.494Z,25.13
2022-08-22T14:19:06.210Z,25.13
2022-08-22T14:20:12.545Z,25.13
2022-08-22T14:21:20.439Z,25.13
2022-08-22T14:22:31.983Z,25.14
2022-08-22T14:23:37.313Z,25.13
2022-08-22T14:24:45.646Z,25.16
2022-08-22T14:25:47.932Z,25.17
2022-08-22T14:26:53.779Z,25.18
2022-08-22T14:28:03.682Z,25.18
2022-08-22T14:29:13.498Z,25.16
2022-08-22T14:30:18.893Z,25.15
2022-08-22T14:31:23.107Z,25.16
2022-08-22T14:32:41.808Z,25.18
2022-08-22T14:33:47.221Z,25.15
2022-08-22T14:34:54.134Z,25.14
2022-08-22T14:35:57.950Z,25.14
2022-08-22T14:37:07.968Z,25.14
2022-08-22T14:38:17.558Z,25.12
2022-08-22T14:39:24.289Z,25.07
2022-08-22T14:40:29.559Z,25.08
2022-08-22T14:41:52.578Z,25.08
2022-08-22T14:43:00.448Z,25.09
2022-08-22T14:44:04.051Z,25.07
2022-08-22T14:45:11.197Z,25.07
2022-08-22T14:46:18.442Z,25.14
2022-08-22T14:47:43.329Z,25.14
2022-08-22T14:49:04.215Z,25.13
2022-08-22T14:50:11.447Z,25.13
2022-08-22T14:51:18.603Z,25.06
2022-08-22T14:52:29.526Z,24.98
2022-08-22T14:53:34.269Z,24.94
2022-08-22T14:54:36.396Z,24.91
2022-08-22T14:55:40.665Z,24.78
2022-08-22T14:56:45.957Z,24.70
2022-08-22T14:57:53.789Z,24.72